Time;durP1;ratioP1;P1;durP2;ratioP2;P2;SDS_P1;SDS_P2;PMS_P1;PMS_P2;Temp;Humidity;BMP_temperature;BMP_pressure;BME280_temperature;BME280_humidity;BME280_pressure;Samples;Min_cycle;Max_cycle;Signal;HPM_P1;HPM_P2
2023/11/10 05:00:13;;;;;;;8.50;3.90;;;;;;;7.02;67.36;98424.03;108966;1256;94839;31
2023/11/10 05:02:44;;;;;;;10.70;4.00;;;;;;;6.98;67.16;98426.52;107360;1244;109898;-75
2023/11/10 05:05:15;;;;;;;7.70;3.60;;;;;;;6.99;67.33;98426.67;107969;1245;97112;-75
2023/11/10 05:07:42;;;;;;;7.80;3.80;;;;;;;6.99;67.06;98426.09;108394;1247;106812;-77
2023/11/10 05:10:09;;;;;;;12.80;3.70;;;;;;;6.99;67.35;98426.48;108060;1241;97259;-76
2023/11/10 05:12:37;;;;;;;11.00;3.70;;;;;;;6.98;67.21;98427.45;107996;1239;96718;-75
2023/11/10 05:15:08;;;;;;;8.70;3.40;;;;;;;6.97;67.36;98427.51;108070;1241;109596;-76
2023/11/10 05:17:43;;;;;;;10.60;3.60;;;;;;;6.96;67.51;98419.29;108309;1249;96510;-76
2023/11/10 05:20:11;;;;;;;9.50;3.70;;;;;;;6.96;67.34;98419.49;108069;1239;108203;-76
2023/11/10 05:22:42;;;;;;;9.20;3.60;;;;;;;6.94;67.34;98424.88;108266;1244;96647;-76
2023/11/10 05:25:09;;;;;;;11.80;3.50;;;;;;;6.92;67.11;98423.98;108101;1238;96505;-75
2023/11/10 05:27:45;;;;;;;9.30;3.40;;;;;;;6.90;67.38;98422.73;108170;1237;96633;-79
2023/11/10 05:30:14;;;;;;;9.30;4.10;;;;;;;6.88;67.22;98419.69;108383;1235;96485;-74
2023/11/10 05:32:41;;;;;;;9.60;3.40;;;;;;;6.87;67.31;98416.02;108333;1247;107571;-80
2023/11/10 05:35:08;;;;;;;10.10;3.50;;;;;;;6.85;67.23;98419.29;108193;1241;97700;-75
2023/11/10 05:37:35;;;;;;;11.30;4.00;;;;;;;6.84;67.10;98419.39;109200;1234;96618;-74
2023/11/10 05:40:02;;;;;;;9.90;3.90;;;;;;;6.82;67.45;98413.20;109427;1234;96591;-78
2023/11/10 05:42:28;;;;;;;8.80;3.80;;;;;;;6.80;67.21;98416.48;108195;1238;97819;-77
2023/11/10 05:44:55;;;;;;;7.50;4.00;;;;;;;6.79;67.17;98413.36;108540;1241;96630;-75
2023/11/10 05:47:22;;;;;;;9.70;3.80;;;;;;;6.79;67.20;98416.89;108451;1234;96623;-75
2023/11/10 05:49:57;;;;;;;8.60;3.70;;;;;;;6.80;67.24;98422.51;108479;1235;97816;-75
2023/11/10 05:52:24;;;;;;;7.20;3.60;;;;;;;6.80;67.19;98422.65;108032;1248;96639;-75
2023/11/10 05:54:50;;;;;;;12.20;3.90;;;;;;;6.80;67.28;98422.48;108506;1234;97196;-75
2023/11/10 05:57:17;;;;;;;9.30;3.70;;;;;;;6.80;67.24;98421.21;108383;1235;96686;-76
2023/11/10 05:59:46;;;;;;;9.80;3.70;;;;;;;6.82;67.16;98423.38;108205;1238;96577;-74
2023/11/10 06:02:12;;;;;;;8.80;3.50;;;;;;;6.83;67.14;98426.98;108401;1238;97120;-78
2023/11/10 06:04:39;;;;;;;9.80;3.90;;;;;;;6.83;67.11;98428.41;108279;1237;96566;-78
2023/11/10 06:07:07;;;;;;;9.80;3.70;;;;;;;6.85;67.37;98433.25;108488;1238;97812;-78
2023/11/10 06:09:34;;;;;;;7.20;3.30;;;;;;;6.87;67.19;98434.55;108735;1233;96803;-78
2023/11/10 06:12:05;;;;;;;8.60;3.70;;;;;;;6.89;67.29;98434.57;110382;1234;96513;-78
2023/11/10 06:14:32;;;;;;;9.10;3.80;;;;;;;6.91;67.05;98431.11;110155;1237;109792;-77
2023/11/10 06:17:00;;;;;;;10.00;3.40;;;;;;;6.92;67.24;98428.89;108516;1234;96585;-77
2023/11/10 06:19:26;;;;;;;8.00;3.80;;;;;;;6.94;67.19;98429.80;108436;1234;96567;-77
2023/11/10 06:21:53;;;;;;;10.60;3.50;;;;;;;6.96;67.13;98427.38;110320;1237;96600;-79
2023/11/10 06:24:20;;;;;;;9.90;3.50;;;;;;;6.99;67.08;98423.13;108487;1237;96592;-76
2023/11/10 06:26:53;;;;;;;9.40;3.70;;;;;;;7.01;67.11;98421.95;109897;1234;96714;-77
2023/11/10 06:29:19;;;;;;;6.90;3.50;;;;;;;7.03;67.06;98424.27;110130;1233;96647;-75
2023/11/10 06:31:47;;;;;;;8.50;3.50;;;;;;;7.06;67.07;98421.80;111275;1233;94259;-76
2023/11/10 06:34:14;;;;;;;9.30;3.70;;;;;;;7.09;67.27;98414.91;111378;1234;94216;-76
2023/11/10 06:36:42;;;;;;;10.50;4.30;;;;;;;7.12;67.23;98418.92;110930;1234;94237;-76
2023/11/10 06:39:11;;;;;;;8.70;3.70;;;;;;;7.15;67.11;98412.85;108350;1236;96588;-78
2023/11/10 06:41:49;;;;;;;8.40;3.70;;;;;;;7.19;67.18;98404.89;108273;1237;96571;-77
2023/11/10 06:44:26;;;;;;;10.50;3.80;;;;;;;7.21;67.25;98403.48;108159;1237;107579;-77
2023/11/10 06:46:54;;;;;;;10.10;3.60;;;;;;;7.22;67.22;98397.21;108421;1237;96631;-79
2023/11/10 06:49:32;;;;;;;7.40;3.80;;;;;;;7.24;67.26;98399.59;108387;1237;96649;-76
2023/11/10 06:52:05;;;;;;;13.90;3.90;;;;;;;7.26;67.21;98396.06;108290;1240;109760;-78
2023/11/10 06:54:34;;;;;;;9.30;3.50;;;;;;;7.27;67.19;98391.42;108300;1237;96602;-76
2023/11/10 06:57:11;;;;;;;8.60;3.60;;;;;;;7.27;67.12;98387.86;108521;1237;96665;-76
2023/11/10 06:59:41;;;;;;;11.10;4.20;;;;;;;7.31;67.15;98393.45;108480;1235;96569;-77
2023/11/10 07:02:09;;;;;;;9.30;3.80;;;;;;;7.33;67.11;98392.09;108306;1238;97743;-76
2023/11/10 07:04:43;;;;;;;13.70;4.50;;;;;;;7.35;67.20;98391.42;108256;1233;109938;-76
2023/11/10 07:07:10;;;;;;;11.10;3.80;;;;;;;7.37;67.25;98388.63;108387;1246;96669;-77
2023/11/10 07:09:53;;;;;;;8.80;3.60;;;;;;;7.38;67.12;98393.27;108347;1237;96596;-79
2023/11/10 07:12:20;;;;;;;10.20;3.90;;;;;;;7.40;67.20;98398.80;108161;1239;96519;-80
2023/11/10 07:14:50;;;;;;;13.30;4.30;;;;;;;7.42;67.29;98391.42;108422;1235;96697;-77
2023/11/10 07:17:17;;;;;;;11.40;4.00;;;;;;;7.45;67.19;98391.95;108035;1235;111283;-78
2023/11/10 07:19:47;;;;;;;10.80;3.80;;;;;;;7.48;67.00;98389.63;108365;1238;96717;-77
2023/11/10 07:22:26;;;;;;;8.90;3.70;;;;;;;7.51;67.23;98387.29;108055;1238;107502;-78
2023/11/10 07:24:53;;;;;;;7.60;3.70;;;;;;;7.54;67.09;98387.58;108463;1237;96549;-79
2023/11/10 07:27:20;;;;;;;10.80;4.10;;;;;;;7.57;67.13;98385.96;108562;1236;96678;-77
2023/11/10 07:29:47;;;;;;;11.50;3.60;;;;;;;7.59;67.08;98385.84;108132;1238;97538;-77
2023/11/10 07:32:17;;;;;;;9.70;3.50;;;;;;;7.63;67.16;98382.21;108471;1234;97073;-77
2023/11/10 07:34:47;;;;;;;6.60;2.90;;;;;;;7.66;67.03;98380.73;108061;1233;107576;-78
2023/11/10 07:37:25;;;;;;;8.40;3.60;;;;;;;7.69;66.95;98381.55;108382;1239;96659;-79
2023/11/10 07:40:01;;;;;;;11.80;3.80;;;;;;;7.74;67.17;98378.06;108194;1237;96486;-82
2023/11/10 07:42:56;;;;;;;8.80;3.60;;;;;;;7.78;66.87;98380.65;107981;1238;109893;-77
2023/11/10 07:45:34;;;;;;;10.90;3.60;;;;;;;7.81;66.82;98382.52;108190;1237;97178;-77
2023/11/10 07:48:03;;;;;;;11.40;3.40;;;;;;;7.86;66.78;98381.11;108316;1235;107207;-80
2023/11/10 07:50:32;;;;;;;12.50;3.50;;;;;;;7.91;66.90;98380.56;108083;1245;96604;-77
2023/11/10 07:53:08;;;;;;;10.80;3.30;;;;;;;7.96;66.74;98378.92;108390;1235;96575;-79
2023/11/10 07:55:35;;;;;;;7.00;3.30;;;;;;;8.00;66.85;98376.91;108361;1236;109777;-76
2023/11/10 07:58:05;;;;;;;6.50;3.40;;;;;;;8.04;66.85;98379.07;108215;1234;96542;-79
2023/11/10 08:00:58;;;;;;;8.20;3.20;;;;;;;8.08;66.84;98385.14;108342;1237;106004;-75
2023/11/10 08:03:28;;;;;;;8.90;3.60;;;;;;;8.14;66.85;98383.30;108099;1233;97490;-76
2023/11/10 08:05:56;;;;;;;9.70;3.70;;;;;;;8.18;66.88;98383.34;107910;1239;96590;-75
2023/11/10 08:08:35;;;;;;;7.80;3.70;;;;;;;8.24;66.92;98381.14;107986;1247;96643;-77
2023/11/10 08:11:12;;;;;;;9.10;3.50;;;;;;;8.29;66.90;98382.55;107845;1242;96609;-76
2023/11/10 08:14:09;;;;;;;9.70;4.80;;;;;;;8.33;66.92;98377.50;108372;1247;107492;-77
2023/11/10 08:16:57;;;;;;;9.10;3.20;;;;;;;8.39;66.77;98379.52;108141;1235;96601;-78
2023/11/10 08:19:47;;;;;;;;;;;;;;;;;;;;;
2023/11/10 08:22:43;;;;;;;9.50;3.60;;;;;;;8.53;66.77;98378.90;108091;1240;109391;-74
2023/11/10 08:25:11;;;;;;;8.60;3.50;;;;;;;8.59;66.85;98389.17;108022;1239;96623;-75
2023/11/10 08:27:39;;;;;;;6.90;3.30;;;;;;;8.65;66.78;98390.16;108087;1236;106282;-74
2023/11/10 08:30:38;;;;;;;10.60;3.90;;;;;;;8.73;66.70;98389.77;108398;1237;96578;-75
2023/11/10 08:33:06;;;;;;;8.10;3.20;;;;;;;8.81;66.74;98390.39;108401;1236;96515;-79
2023/11/10 08:35:33;;;;;;;9.40;3.70;;;;;;;8.87;66.73;98387.80;108273;1239;109659;-78
2023/11/10 08:38:00;;;;;;;5.70;2.80;;;;;;;8.92;66.68;98383.33;108399;1237;96664;-77
2023/11/10 08:40:27;;;;;;;7.50;3.40;;;;;;;8.97;66.68;98384.20;108238;1237;96498;-78
2023/11/10 08:42:53;;;;;;;12.80;3.70;;;;;;;9.01;66.56;98388.16;108498;1234;97504;-79
2023/11/10 08:45:37;;;;;;;12.20;3.70;;;;;;;9.06;66.55;98388.11;108158;1234;96573;-77
2023/11/10 08:48:13;;;;;;;10.90;3.20;;;;;;;9.10;66.49;98386.44;107939;1239;109451;-80
2023/11/10 08:50:43;;;;;;;10.10;3.90;;;;;;;9.16;66.63;98389.14;108145;1245;96905;-77
2023/11/10 08:53:15;;;;;;;9.30;3.50;;;;;;;9.24;66.61;98380.92;108290;1238;107643;-77
2023/11/10 08:55:45;;;;;;;11.10;3.70;;;;;;;9.32;66.50;98378.89;108348;1237;96640;-75
2023/11/10 08:58:13;;;;;;;9.90;3.00;;;;;;;9.37;66.56;98370.16;108391;1235;96997;-76
2023/11/10 09:00:43;;;;;;;6.90;3.10;;;;;;;9.41;66.55;98371.43;108105;1244;109710;-76
2023/11/10 09:03:11;;;;;;;10.30;3.80;;;;;;;9.45;66.46;98366.54;108199;1236;96629;-78
2023/11/10 09:05:48;;;;;;;9.40;3.20;;;;;;;9.48;66.34;98359.05;108192;1232;108312;-79
2023/11/10 09:08:26;;;;;;;7.80;3.40;;;;;;;9.50;66.28;98363.11;108386;1235;97734;-79
2023/11/10 09:11:07;;;;;;;10.00;3.40;;;;;;;9.55;66.25;98358.88;108187;1234;96572;-80
2023/11/10 09:13:43;;;;;;;8.70;3.60;;;;;;;9.56;66.21;98353.27;108898;1241;109387;-78
2023/11/10 09:16:44;;;;;;;;;;;;;;;;;;;;;
2023/11/10 09:19:14;;;;;;;7.70;3.10;;;;;;;9.63;66.08;98348.46;108332;1238;105889;-79
2023/11/10 09:21:41;;;;;;;10.00;3.40;;;;;;;9.67;66.10;98346.35;108454;1232;96565;-81
2023/11/10 09:24:18;;;;;;;9.80;3.70;;;;;;;9.70;66.07;98347.20;108185;1239;96583;-78
2023/11/10 09:26:47;;;;;;;8.40;3.10;;;;;;;9.75;66.03;98343.25;108443;1237;108879;-78
2023/11/10 09:29:17;;;;;;;8.60;3.50;;;;;;;9.81;66.05;98345.44;108301;1246;96539;-79
2023/11/10 09:31:45;;;;;;;9.70;3.50;;;;;;;9.83;65.99;98338.18;108219;1237;107519;-80
2023/11/10 09:34:23;;;;;;;;;;;;;;;;;;;;;
2023/11/10 09:37:05;;;;;;;11.50;3.70;;;;;;;9.86;65.94;98335.15;108426;1237;96656;-79
2023/11/10 09:39:36;;;;;;;21.20;6.20;;;;;;;9.86;65.96;98332.64;108125;1234;109459;-79
2023/11/10 09:42:08;;;;;;;11.40;4.10;;;;;;;9.84;65.86;98322.16;108404;1232;97851;-78
2023/11/10 09:44:40;;;;;;;18.20;5.80;;;;;;;9.82;65.80;98321.09;108418;1244;107582;-78
2023/11/10 09:47:08;;;;;;;15.00;5.30;;;;;;;9.83;65.65;98316.77;111255;1232;94542;-79
2023/11/10 09:49:45;;;;;;;11.50;3.80;;;;;;;9.88;65.74;98311.97;109284;1236;96571;-79
2023/11/10 09:52:19;;;;;;;13.90;4.80;;;;;;;9.91;65.64;98307.44;108242;1236;109746;-79
2023/11/10 09:54:54;;;;;;;12.50;4.50;;;;;;;9.89;65.54;98304.56;108227;1234;96590;-79
2023/11/10 09:57:31;;;;;;;11.60;4.20;;;;;;;9.86;65.64;98303.39;108294;1239;107421;-80
2023/11/10 10:00:00;;;;;;;11.30;4.20;;;;;;;9.81;65.50;98298.30;108313;1237;96570;-79
2023/11/10 10:02:29;;;;;;;8.60;3.70;;;;;;;9.77;65.52;98299.60;108151;1238;96552;-80
2023/11/10 10:04:59;;;;;;;8.90;3.60;;;;;;;9.73;65.35;98298.98;108180;1240;96665;-79
2023/11/10 10:07:26;;;;;;;9.80;3.70;;;;;;;9.72;65.28;98292.36;108213;1245;97863;-79
2023/11/10 10:09:52;;;;;;;9.60;4.30;;;;;;;9.73;65.25;98296.85;108464;1232;96594;-81
2023/11/10 10:12:29;;;;;;;17.40;5.00;;;;;;;9.76;65.30;98291.29;108232;1237;96721;-80
2023/11/10 10:14:56;;;;;;;10.40;3.40;;;;;;;9.81;65.18;98290.15;108261;1240;96517;-79
2023/11/10 10:17:49;;;;;;;9.80;3.80;;;;;;;9.88;65.26;98288.92;108314;1237;96590;-78
2023/11/10 10:20:22;;;;;;;;;;;;;;;9.97;65.17;98287.11;108254;1247;96573;-84
2023/11/10 10:22:58;;;;;;;12.50;4.70;;;;;;;10.02;65.10;98279.98;108087;1246;107239;-78
2023/11/10 10:25:25;;;;;;;13.00;4.50;;;;;;;10.07;65.04;98276.95;108022;1239;96576;-79
2023/11/10 10:27:52;;;;;;;8.40;3.80;;;;;;;10.11;64.97;98281.56;108095;1237;96574;-80
2023/11/10 10:30:26;;;;;;;9.70;4.20;;;;;;;10.15;65.06;98275.42;108110;1239;109961;-80
2023/11/10 10:33:13;;;;;;;;;;;;;;;;;;;;;
2023/11/10 10:35:41;;;;;;;8.50;3.30;;;;;;;10.22;64.91;98271.77;108226;1239;107465;-78
2023/11/10 10:38:09;;;;;;;10.30;3.60;;;;;;;10.22;64.86;98270.54;108287;1236;96679;-78
2023/11/10 10:40:39;;;;;;;10.00;4.00;;;;;;;10.20;64.75;98273.70;108372;1238;97740;-78
2023/11/10 10:43:11;;;;;;;14.80;5.30;;;;;;;10.17;64.70;98279.44;108428;1232;108294;-81
2023/11/10 10:45:42;;;;;;;9.10;4.00;;;;;;;10.16;64.78;98273.73;108494;1234;96579;-80
2023/11/10 10:48:27;;;;;;;9.40;3.60;;;;;;;10.13;64.51;98272.35;108437;1238;107296;-78
2023/11/10 10:50:56;;;;;;;9.00;3.70;;;;;;;10.13;64.63;98269.30;108284;1233;97543;-80
2023/11/10 10:53:24;;;;;;;11.00;3.80;;;;;;;10.17;64.48;98268.48;108390;1239;96587;-78
2023/11/10 10:55:55;;;;;;;9.30;3.60;;;;;;;10.19;64.55;98275.08;108288;1238;108800;-83
2023/11/10 10:58:22;;;;;;;11.20;4.10;;;;;;;10.23;64.47;98276.14;108355;1236;96573;-79
2023/11/10 11:04:58;;;;;;;;;;;;;;;;;;;;;
2023/11/10 11:07:58;;;;;;;11.50;3.90;;;;;;;10.24;64.39;98280.27;105115;1261;94332;-79
2023/11/10 11:10:37;;;;;;;9.80;4.00;;;;;;;10.23;64.14;98276.63;105325;1263;94410;-83
2023/11/10 11:13:46;;;;;;;9.50;3.60;;;;;;;10.21;64.25;98279.48;104907;1258;107259;-80
2023/11/10 11:16:45;;;;;;;14.50;4.90;;;;;;;10.21;64.17;98282.27;103198;1254;2654635;-80
2023/11/10 11:19:19;;;;;;;12.70;4.60;;;;;;;10.22;64.20;98279.43;105185;1254;107738;-77
2023/11/10 11:21:49;;;;;;;14.40;4.60;;;;;;;10.21;64.11;98272.69;105297;1260;94290;-79
2023/11/10 11:24:53;;;;;;;13.00;4.60;;;;;;;10.20;64.15;98274.90;105255;1258;94303;-78
2023/11/10 11:27:36;;;;;;;12.50;4.40;;;;;;;10.18;64.11;98268.00;105037;1254;107336;-78
2023/11/10 11:30:12;;;;;;;13.80;5.60;;;;;;;10.20;64.13;98263.45;105231;1259;95443;-77
2023/11/10 11:32:42;;;;;;;12.00;4.20;;;;;;;10.21;64.03;98261.41;104990;1262;107615;-78
2023/11/10 11:35:17;;;;;;;11.20;4.60;;;;;;;10.19;63.99;98253.40;105160;1263;95357;-78
2023/11/10 11:37:45;;;;;;;12.10;4.80;;;;;;;10.19;63.76;98254.52;105293;1259;95308;-77
2023/11/10 11:40:14;;;;;;;9.30;3.70;;;;;;;10.16;63.89;98249.05;105193;1254;108616;-76
2023/11/10 11:43:13;;;;;;;8.30;3.80;;;;;;;10.14;63.83;98247.44;105180;1254;96173;-78
2023/11/10 11:45:49;;;;;;;8.90;3.50;;;;;;;10.14;63.74;98244.11;105012;1273;107617;-81
2023/11/10 11:48:19;;;;;;;12.30;4.20;;;;;;;10.12;63.72;98244.80;105202;1260;96209;-77
2023/11/10 11:51:14;;;;;;;10.70;4.40;;;;;;;10.11;63.65;98245.20;105140;1263;95242;-77
2023/11/10 11:53:42;;;;;;;9.60;3.80;;;;;;;10.07;63.47;98243.08;105141;1260;108281;-76
2023/11/10 11:56:19;;;;;;;9.80;3.70;;;;;;;10.03;63.61;98243.23;104943;1263;95630;-78
2023/11/10 11:58:51;;;;;;;10.50;3.90;;;;;;;10.02;63.59;98242.77;105092;1260;108500;-76
2023/11/10 12:01:45;;;;;;;8.80;3.60;;;;;;;10.00;63.46;98245.76;105123;1263;95324;-76
2023/11/10 12:04:13;;;;;;;9.90;3.60;;;;;;;10.00;63.52;98246.31;105634;1256;95317;-76
2023/11/10 12:06:49;;;;;;;12.30;4.20;;;;;;;9.99;63.49;98242.12;105369;1258;108275;-79
2023/11/10 12:09:25;;;;;;;10.30;3.70;;;;;;;9.99;63.51;98244.78;105357;1260;95674;-76
2023/11/10 12:11:55;;;;;;;7.10;3.10;;;;;;;9.99;63.39;98242.66;105156;1261;107617;-76
2023/11/10 12:14:29;;;;;;;8.90;3.60;;;;;;;9.98;63.38;98245.45;105297;1259;95230;-78
2023/11/10 12:16:58;;;;;;;9.00;3.40;;;;;;;9.97;63.42;98243.40;105040;1254;96235;-79
2023/11/10 12:19:29;;;;;;;12.30;3.90;;;;;;;9.96;63.33;98245.72;105141;1258;108261;-80
2023/11/10 12:22:08;;;;;;;10.50;3.90;;;;;;;9.97;63.32;98243.38;105123;1254;96738;-78
2023/11/10 12:24:38;;;;;;;12.90;3.50;;;;;;;9.98;63.37;98243.10;105253;1262;106568;-78
2023/11/10 12:27:07;;;;;;;11.30;4.20;;;;;;;9.97;63.23;98242.95;105370;1259;95233;-78
2023/11/10 12:29:46;;;;;;;8.10;3.50;;;;;;;9.97;63.24;98244.25;105215;1262;96073;-77
2023/11/10 12:32:17;;;;;;;12.00;4.30;;;;;;;9.97;63.27;98239.96;105356;1256;108584;-75
2023/11/10 12:34:47;;;;;;;9.40;4.00;;;;;;;9.96;63.20;98240.60;105015;1261;95612;-78
2023/11/10 12:37:17;;;;;;;9.90;4.00;;;;;;;9.97;63.17;98240.91;105445;1254;107323;-76
2023/11/10 12:39:45;;;;;;;12.10;4.50;;;;;;;9.98;63.15;98236.55;105214;1262;96185;-78
2023/11/10 12:42:24;;;;;;;;;;;;;;;;;;;;;
2023/11/10 12:45:01;;;;;;;11.20;4.00;;;;;;;9.97;63.09;98238.59;105421;1257;108652;-76
2023/11/10 12:47:33;;;;;;;8.90;3.50;;;;;;;9.97;63.05;98235.27;105000;1259;96274;-79
2023/11/10 12:50:30;;;;;;;11.30;3.60;;;;;;;9.97;63.05;98231.50;105336;1260;107574;-77
2023/11/10 12:52:58;;;;;;;11.70;4.20;;;;;;;9.96;62.98;98232.11;105361;1262;95425;-78
2023/11/10 12:55:32;;;;;;;12.30;4.30;;;;;;;9.97;63.01;98231.36;105342;1257;95224;-78
2023/11/10 12:58:00;;;;;;;13.50;4.30;;;;;;;9.98;62.90;98226.66;108382;1252;108502;-76
2023/11/10 13:00:31;;;;;;;9.80;3.60;;;;;;;9.99;62.90;98225.12;105438;1256;95529;-76
2023/11/10 13:03:03;;;;;;;12.90;4.50;;;;;;;9.99;62.98;98219.64;105537;1256;107830;-77
2023/11/10 13:05:31;;;;;;;10.80;4.30;;;;;;;10.01;62.98;98223.70;105660;1257;95730;-77
2023/11/10 13:07:59;;;;;;;11.60;4.10;;;;;;;10.02;62.90;98220.52;105197;1259;96089;-76
2023/11/10 13:10:27;;;;;;;12.20;4.10;;;;;;;10.03;62.91;98218.49;105537;1254;108426;-76
2023/11/10 13:12:57;;;;;;;10.10;4.00;;;;;;;10.03;62.76;98218.96;105320;1259;95315;-78
2023/11/10 13:15:25;;;;;;;10.80;4.30;;;;;;;10.04;62.71;98218.00;105397;1254;107708;-77
2023/11/10 13:17:55;;;;;;;9.30;3.70;;;;;;;10.05;62.84;98219.50;105198;1259;95335;-77
2023/11/10 13:20:27;;;;;;;10.70;4.70;;;;;;;10.06;62.74;98219.99;105219;1254;95317;-76
2023/11/10 13:23:00;;;;;;;8.30;3.80;;;;;;;10.06;62.72;98222.77;105393;1256;108693;-76
2023/11/10 13:25:37;;;;;;;9.70;3.90;;;;;;;10.05;62.78;98224.42;105466;1256;95723;-76
2023/11/10 13:28:06;;;;;;;9.60;3.70;;;;;;;10.06;62.65;98223.12;105512;1257;107653;-77
2023/11/10 13:30:37;;;;;;;12.70;4.70;;;;;;;10.06;62.68;98222.43;105725;1255;95176;-78
2023/11/10 13:33:08;;;;;;;18.10;6.30;;;;;;;10.06;62.63;98220.48;105496;1259;96720;-78
2023/11/10 13:35:40;;;;;;;11.10;3.80;;;;;;;10.06;62.61;98222.25;105008;1260;110133;-87
2023/11/10 13:38:16;;;;;;;13.20;4.50;;;;;;;10.06;62.66;98219.93;105466;1259;95290;-78
2023/11/10 13:40:54;;;;;;;13.70;4.90;;;;;;;10.05;62.58;98216.14;104960;1270;107651;-77
2023/11/10 13:43:25;;;;;;;9.70;3.90;;;;;;;10.04;62.52;98213.71;105508;1257;95234;-79
2023/11/10 13:45:57;;;;;;;10.70;4.20;;;;;;;10.04;62.46;98214.30;105232;1258;95224;-77
2023/11/10 13:48:25;;;;;;;6.90;3.50;;;;;;;10.01;62.42;98213.11;105458;1259;108757;-77
2023/11/10 13:50:54;;;;;;;9.40;3.30;;;;;;;9.97;62.41;98205.09;105305;1259;96609;-85
2023/11/10 13:53:51;;;;;;;7.80;3.60;;;;;;;9.95;62.36;98198.17;105449;1254;107611;-77
2023/11/10 13:56:27;;;;;;;8.20;3.80;;;;;;;9.92;62.33;98192.10;105452;1257;95243;-76
2023/11/10 13:59:06;;;;;;;7.60;3.60;;;;;;;9.89;62.27;98188.23;105376;1264;95286;-79
2023/11/10 14:01:36;;;;;;;11.00;3.90;;;;;;;9.86;62.32;98186.94;105248;1254;108134;-76
2023/11/10 14:04:06;;;;;;;12.50;4.10;;;;;;;9.83;62.30;98188.73;105660;1258;95288;-76
2023/11/10 14:06:42;;;;;;;11.60;4.20;;;;;;;9.81;62.16;98182.91;105888;1256;107917;-77
2023/11/10 14:09:15;;;;;;;10.50;3.90;;;;;;;9.79;62.20;98182.66;105551;1256;95220;-76
2023/11/10 14:11:43;;;;;;;12.90;4.20;;;;;;;9.78;62.10;98177.64;105484;1257;95247;-79
2023/11/10 14:14:15;;;;;;;12.20;4.60;;;;;;;9.75;62.11;98171.73;105283;1257;108480;-77
2023/11/10 14:16:50;;;;;;;9.60;4.10;;;;;;;9.72;62.10;98170.18;105468;1259;96134;-79
2023/11/10 14:19:19;;;;;;;12.20;4.30;;;;;;;9.68;62.08;98168.73;105437;1270;107472;-76
2023/11/10 14:21:57;;;;;;;16.10;4.40;;;;;;;9.66;62.07;98162.71;105289;1256;95257;-79
2023/11/10 14:24:44;;;;;;;14.70;4.90;;;;;;;9.65;62.09;98161.05;105588;1259;96108;-83
2023/11/10 14:27:13;;;;;;;13.40;4.80;;;;;;;9.61;61.96;98149.85;105393;1259;108642;-78
2023/11/10 14:29:41;;;;;;;16.40;5.40;;;;;;;9.56;61.97;98142.14;105576;1258;95323;-76
2023/11/10 14:32:09;;;;;;;18.90;5.70;;;;;;;9.52;61.96;98141.17;105944;1256;106127;-79
2023/11/10 14:34:44;;;;;;;13.30;4.70;;;;;;;9.50;61.96;98144.52;105669;1255;95230;-77
2023/11/10 14:37:41;;;;;;;15.10;4.80;;;;;;;9.48;61.94;98148.98;105552;1257;95260;-77
2023/11/10 14:40:16;;;;;;;11.70;4.70;;;;;;;9.45;61.85;98163.38;105842;1259;108475;-77
2023/11/10 14:42:48;;;;;;;14.30;5.30;;;;;;;9.42;61.85;98163.80;105971;1256;95241;-78
2023/11/10 14:45:21;;;;;;;16.40;5.40;;;;;;;9.39;61.82;98164.22;105483;1254;108063;-79
2023/11/10 14:47:51;;;;;;;15.00;5.00;;;;;;;9.36;61.77;98169.76;105828;1257;95339;-81
2023/11/10 14:50:34;;;;;;;18.00;5.50;;;;;;;9.33;61.77;98172.64;105404;1260;95236;-78
2023/11/10 14:53:12;;;;;;;15.70;5.30;;;;;;;9.30;61.72;98175.54;106534;1254;107589;-78
2023/11/10 14:56:10;;;;;;;15.10;5.60;;;;;;;9.29;61.76;98170.00;105359;1261;95243;-77
2023/11/10 14:58:57;;;;;;;15.00;5.20;;;;;;;9.26;61.67;98169.13;105423;1254;107595;-78
2023/11/10 15:01:29;;;;;;;16.30;5.50;;;;;;;9.23;61.72;98173.58;105564;1254;95248;-77
2023/11/10 15:03:59;;;;;;;14.80;5.10;;;;;;;9.23;61.71;98175.05;105322;1259;95227;-78
2023/11/10 15:06:27;;;;;;;14.40;5.00;;;;;;;9.22;61.65;98173.58;105411;1257;108533;-78
2023/11/10 15:09:08;;;;;;;;;;;;;;;;;;;;;
